Time;durP1;ratioP1;P1;durP2;ratioP2;P2;SDS_P1;SDS_P2;PMS_P1;PMS_P2;Temp;Humidity;BMP_temperature;BMP_pressure;BME280_temperature;BME280_humidity;BME280_pressure;Samples;Min_cycle;Max_cycle;Signal;HPM_P1;HPM_P2
2021/09/29 00:01:45;;;;;;;22.47;20.97;;;;;;;;;;5037661;28;20418;-91
2021/09/29 00:04:12;;;;;;;22.23;20.50;;;;;;;;;;5055179;28;20454;-91
2021/09/29 00:06:40;;;;;;;21.97;20.20;;;;;;;;;;5054837;28;20883;-91
2021/09/29 00:09:08;;;;;;;22.87;21.17;;;;;;;;;;5037341;28;20524;-92
2021/09/29 00:11:35;;;;;;;22.10;20.70;;;;;;;;;;5055607;28;20446;-91
2021/09/29 00:14:03;;;;;;;23.27;21.40;;;;;;;;;;5055184;28;20449;-91
2021/09/29 00:16:31;;;;;;;22.07;20.77;;;;;;;;;;5061839;28;20417;-91
2021/09/29 00:18:59;;;;;;;22.30;20.93;;;;;;;;;;5055918;28;20450;-91
2021/09/29 00:21:26;;;;;;;23.07;21.57;;;;;;;;;;5054630;28;20482;-91
2021/09/29 00:23:54;;;;;;;22.47;21.17;;;;;;;;;;5055092;28;20459;-91
2021/09/29 00:26:21;;;;;;;22.70;21.20;;;;;;;;;;5054424;28;20435;-91
2021/09/29 00:28:48;;;;;;;22.00;20.60;;;;;;;;;;5054181;28;20431;-92
2021/09/29 00:31:26;;;;;;;22.80;21.03;;;;;;;;;;5054582;28;20421;-93
2021/09/29 00:34:06;;;;;;;23.23;21.80;;;;;;;;;;5054474;28;20478;-93
2021/09/29 00:36:33;;;;;;;22.90;21.40;;;;;;;;;;5056126;28;20417;-93
2021/09/29 00:39:00;;;;;;;23.17;21.67;;;;;;;;;;5055412;28;20921;-93
2021/09/29 00:41:28;;;;;;;22.40;20.80;;;;;;;;;;5055067;28;20457;-93
2021/09/29 00:43:55;;;;;;;21.90;20.30;;;;;;;;;;5054834;28;20457;-93
2021/09/29 00:46:22;;;;;;;22.07;20.53;;;;;;;;;;5036353;28;20417;-93
2021/09/29 00:48:50;;;;;;;22.23;20.93;;;;;;;;;;5056608;28;20425;-93
2021/09/29 00:51:19;;;;;;;22.27;20.87;;;;;;;;;;5054208;28;20439;-93
2021/09/29 00:53:48;;;;;;;23.17;20.83;;;;;;;;;;5056015;28;20521;-93
2021/09/29 00:56:16;;;;;;;22.00;20.60;;;;;;;;;;5037137;28;20422;-93
2021/09/29 00:58:43;;;;;;;23.43;21.93;;;;;;;;;;5056954;28;20455;-93
2021/09/29 01:01:11;;;;;;;23.40;21.63;;;;;;;;;;5056410;28;20461;-93
2021/09/29 01:03:38;;;;;;;22.93;21.00;;;;;;;;;;5056040;28;20774;-93
2021/09/29 01:06:09;;;;;;;21.10;19.63;;;;;;;;;;5054961;28;20512;-93
2021/09/29 01:08:40;;;;;;;22.60;21.10;;;;;;;;;;5054897;28;20409;-93
2021/09/29 01:11:11;;;;;;;22.17;20.80;;;;;;;;;;5054895;28;20447;-93
2021/09/29 01:13:41;;;;;;;22.37;20.70;;;;;;;;;;5054694;28;20442;-94
2021/09/29 01:16:11;;;;;;;23.10;21.50;;;;;;;;;;5054321;28;20545;-93
2021/09/29 01:18:42;;;;;;;23.87;22.07;;;;;;;;;;5054706;28;20447;-93
2021/09/29 01:21:12;;;;;;;23.40;21.60;;;;;;;;;;5037188;28;20544;-92
2021/09/29 01:23:54;;;;;;;22.33;20.77;;;;;;;;;;5041618;28;20417;-94
2021/09/29 01:26:28;;;;;;;23.10;21.33;;;;;;;;;;5052155;28;20457;-93
2021/09/29 01:28:58;;;;;;;21.67;20.37;;;;;;;;;;5061936;28;20406;-91
2021/09/29 01:31:28;;;;;;;22.43;20.60;;;;;;;;;;5060503;28;20439;-93
2021/09/29 01:33:57;;;;;;;22.27;20.93;;;;;;;;;;5059241;28;20484;-93
2021/09/29 01:36:25;;;;;;;21.87;20.30;;;;;;;;;;5042589;28;20432;-93
2021/09/29 01:38:55;;;;;;;22.20;20.80;;;;;;;;;;5059587;28;20951;-92
2021/09/29 01:41:26;;;;;;;23.17;21.33;;;;;;;;;;5042072;28;21027;-93
2021/09/29 01:43:54;;;;;;;22.07;20.67;;;;;;;;;;5061099;28;20410;-94
2021/09/29 01:46:22;;;;;;;22.63;21.13;;;;;;;;;;5059466;28;20443;-93
2021/09/29 01:48:54;;;;;;;21.80;20.60;;;;;;;;;;5059337;28;20884;-93
2021/09/29 01:51:23;;;;;;;22.57;21.17;;;;;;;;;;5042666;28;20448;-93
2021/09/29 01:53:52;;;;;;;22.00;20.70;;;;;;;;;;5041560;28;20522;-93
2021/09/29 01:56:19;;;;;;;22.37;21.17;;;;;;;;;;5059891;28;20409;-92
2021/09/29 01:58:48;;;;;;;23.37;21.70;;;;;;;;;;5058688;28;20441;-93
2021/09/29 02:01:17;;;;;;;22.03;20.43;;;;;;;;;;5058279;28;20490;-94
2021/09/29 02:03:46;;;;;;;22.13;20.60;;;;;;;;;;5058101;28;20427;-93
2021/09/29 02:06:14;;;;;;;21.33;20.13;;;;;;;;;;5041104;28;20520;-93
2021/09/29 02:08:41;;;;;;;21.80;20.50;;;;;;;;;;5057088;28;20927;-92
2021/09/29 02:11:09;;;;;;;21.90;20.13;;;;;;;;;;5039969;28;20467;-94
2021/09/29 02:13:36;;;;;;;22.37;20.50;;;;;;;;;;5057624;28;20438;-93
2021/09/29 02:16:07;;;;;;;22.57;20.83;;;;;;;;;;5060834;28;20458;-92
2021/09/29 02:21:15;;;;;;;21.57;20.23;;;;;;;;;;5057414;28;20461;-94
2021/09/29 02:23:43;;;;;;;21.53;20.13;;;;;;;;;;5056438;28;20462;-94
2021/09/29 02:26:10;;;;;;;21.63;20.30;;;;;;;;;;5056092;28;20409;-93
2021/09/29 02:28:37;;;;;;;22.57;21.07;;;;;;;;;;5056293;28;20409;-93
2021/09/29 02:31:05;;;;;;;22.20;20.90;;;;;;;;;;5056403;28;20401;-93
2021/09/29 02:33:34;;;;;;;22.20;20.80;;;;;;;;;;5055928;28;20567;-93
2021/09/29 02:36:01;;;;;;;21.77;20.37;;;;;;;;;;5056055;28;20442;-93
2021/09/29 02:38:29;;;;;;;22.47;20.97;;;;;;;;;;5068206;28;20417;-94
2021/09/29 02:40:57;;;;;;;21.60;20.30;;;;;;;;;;5065940;28;20488;-91
2021/09/29 02:43:24;;;;;;;21.00;19.70;;;;;;;;;;5064917;28;20486;-93
2021/09/29 02:45:52;;;;;;;20.83;19.63;;;;;;;;;;5063439;28;20431;-93
2021/09/29 02:48:19;;;;;;;20.73;19.53;;;;;;;;;;5055884;28;20429;-94
2021/09/29 02:50:48;;;;;;;21.20;20.00;;;;;;;;;;5056184;28;20433;-93
2021/09/29 02:53:15;;;;;;;21.47;20.20;;;;;;;;;;5055705;28;20401;-94
2021/09/29 02:55:43;;;;;;;21.47;20.03;;;;;;;;;;5055705;28;20916;-93
2021/09/29 02:58:10;;;;;;;21.77;20.57;;;;;;;;;;5055801;28;20616;-93
2021/09/29 03:00:38;;;;;;;22.70;21.30;;;;;;;;;;5055449;28;20448;-94
2021/09/29 03:03:05;;;;;;;22.73;21.00;;;;;;;;;;5055353;28;20435;-93
2021/09/29 03:05:32;;;;;;;22.00;20.60;;;;;;;;;;5055756;28;20443;-94
2021/09/29 03:08:01;;;;;;;22.70;21.30;;;;;;;;;;5055478;28;20439;-94
2021/09/29 03:10:29;;;;;;;22.47;20.97;;;;;;;;;;5055720;28;20455;-94
2021/09/29 03:12:56;;;;;;;23.73;22.23;;;;;;;;;;5055532;28;20405;-93
2021/09/29 03:15:23;;;;;;;22.47;21.07;;;;;;;;;;5038149;28;20410;-93
2021/09/29 03:17:51;;;;;;;22.03;20.63;;;;;;;;;;5055169;28;20429;-93
2021/09/29 03:20:18;;;;;;;22.80;21.30;;;;;;;;;;5055470;28;20447;-94
2021/09/29 03:22:46;;;;;;;22.50;20.87;;;;;;;;;;5055199;28;20447;-93
2021/09/29 03:25:16;;;;;;;21.37;20.07;;;;;;;;;;5037243;28;20490;-93
2021/09/29 03:27:43;;;;;;;23.90;22.40;;;;;;;;;;5054776;28;21043;-93
2021/09/29 03:30:11;;;;;;;22.70;21.40;;;;;;;;;;5055160;28;21153;-93
2021/09/29 03:32:39;;;;;;;22.67;20.97;;;;;;;;;;5054914;28;20450;-92
2021/09/29 03:35:07;;;;;;;21.90;20.37;;;;;;;;;;5055451;28;20421;-93
2021/09/29 03:37:35;;;;;;;23.10;21.30;;;;;;;;;;5055094;28;20409;-93
2021/09/29 03:40:02;;;;;;;23.63;21.90;;;;;;;;;;5054796;28;20443;-93
2021/09/29 03:42:31;;;;;;;24.17;22.50;;;;;;;;;;5054971;28;20463;-94
2021/09/29 03:44:59;;;;;;;38.17;31.93;;;;;;;;;;5054862;28;20421;-94
2021/09/29 03:47:26;;;;;;;30.67;25.80;;;;;;;;;;5037689;28;20461;-93
2021/09/29 03:49:53;;;;;;;24.87;23.00;;;;;;;;;;5055026;28;20927;-93
2021/09/29 03:52:21;;;;;;;24.10;22.27;;;;;;;;;;5056201;28;20756;-94
2021/09/29 03:54:48;;;;;;;22.80;21.30;;;;;;;;;;5055796;28;20477;-93
2021/09/29 03:57:16;;;;;;;22.40;21.10;;;;;;;;;;5054729;28;20550;-93
2021/09/29 03:59:45;;;;;;;22.80;21.47;;;;;;;;;;5054394;28;20864;-93
2021/09/29 04:02:12;;;;;;;24.27;22.57;;;;;;;;;;5054927;28;20464;-93
2021/09/29 04:04:40;;;;;;;24.83;23.13;;;;;;;;;;5058146;28;20428;-94
2021/09/29 04:07:07;;;;;;;24.00;22.20;;;;;;;;;;5054728;28;20439;-93
2021/09/29 04:09:35;;;;;;;23.30;21.87;;;;;;;;;;5054696;28;20451;-94
2021/09/29 04:12:02;;;;;;;22.77;21.23;;;;;;;;;;5054668;28;20438;-93
2021/09/29 04:14:29;;;;;;;23.57;21.97;;;;;;;;;;5054360;28;20425;-93
2021/09/29 04:16:58;;;;;;;23.90;22.40;;;;;;;;;;5054993;28;20429;-94
2021/09/29 04:19:26;;;;;;;22.33;20.83;;;;;;;;;;5054621;28;20416;-92
2021/09/29 04:21:53;;;;;;;23.40;21.80;;;;;;;;;;5054545;28;20457;-94
2021/09/29 04:24:20;;;;;;;22.77;21.23;;;;;;;;;;5054952;28;20835;-94
2021/09/29 04:26:48;;;;;;;23.07;21.67;;;;;;;;;;5054368;28;20449;-93
2021/09/29 04:29:15;;;;;;;23.97;22.37;;;;;;;;;;5055004;28;20425;-93
2021/09/29 04:31:42;;;;;;;23.70;22.10;;;;;;;;;;5056065;28;20541;-94
2021/09/29 04:34:11;;;;;;;22.97;21.40;;;;;;;;;;5055172;28;20453;-93
2021/09/29 04:36:39;;;;;;;23.40;21.90;;;;;;;;;;5054801;28;20429;-94
2021/09/29 04:39:06;;;;;;;24.17;22.37;;;;;;;;;;5054123;28;20434;-93
2021/09/29 04:41:33;;;;;;;23.40;21.80;;;;;;;;;;5054621;28;20467;-94
2021/09/29 04:44:01;;;;;;;23.83;22.03;;;;;;;;;;5056520;28;20466;-93
2021/09/29 04:46:28;;;;;;;24.20;22.60;;;;;;;;;;5054544;28;20783;-93
2021/09/29 04:48:55;;;;;;;22.40;21.10;;;;;;;;;;5054441;28;20440;-93
2021/09/29 04:51:24;;;;;;;25.00;23.30;;;;;;;;;;5054275;28;20422;-93
2021/09/29 04:53:52;;;;;;;25.23;23.17;;;;;;;;;;5054504;28;20478;-92
2021/09/29 04:56:19;;;;;;;23.63;22.23;;;;;;;;;;5055635;28;20410;-93
2021/09/29 04:58:46;;;;;;;24.37;22.50;;;;;;;;;;5054767;28;20934;-93
2021/09/29 05:01:15;;;;;;;23.83;22.23;;;;;;;;;;5057366;28;20452;-93
2021/09/29 05:03:42;;;;;;;23.77;22.20;;;;;;;;;;5059950;28;20812;-93
2021/09/29 05:06:10;;;;;;;24.00;22.17;;;;;;;;;;5044423;28;20745;-93
2021/09/29 05:08:39;;;;;;;23.50;22.10;;;;;;;;;;5059629;28;20421;-94
2021/09/29 05:11:09;;;;;;;23.03;21.70;;;;;;;;;;5058500;28;20462;-93
2021/09/29 05:13:37;;;;;;;24.20;22.40;;;;;;;;;;5045805;28;20860;-93
2021/09/29 05:16:05;;;;;;;23.37;21.87;;;;;;;;;;5065895;28;20467;-92
2021/09/29 05:18:32;;;;;;;23.33;21.73;;;;;;;;;;5064878;28;20436;-93
2021/09/29 05:21:00;;;;;;;24.00;22.60;;;;;;;;;;5064760;28;20467;-93
2021/09/29 05:23:27;;;;;;;24.67;22.67;;;;;;;;;;5059203;28;20429;-94
2021/09/29 05:25:57;;;;;;;24.27;22.43;;;;;;;;;;5059241;28;20416;-93
2021/09/29 05:28:25;;;;;;;24.60;22.90;;;;;;;;;;5058663;28;20425;-93
2021/09/29 05:30:52;;;;;;;23.30;21.70;;;;;;;;;;5059371;28;20459;-93
2021/09/29 05:33:20;;;;;;;23.00;21.70;;;;;;;;;;5059868;28;20464;-93
2021/09/29 05:35:48;;;;;;;22.77;21.27;;;;;;;;;;5066674;28;20445;-93
2021/09/29 05:38:15;;;;;;;24.10;22.33;;;;;;;;;;5064092;28;20441;-93
2021/09/29 05:40:43;;;;;;;23.83;22.33;;;;;;;;;;5057831;28;20446;-93
2021/09/29 05:43:12;;;;;;;23.40;21.70;;;;;;;;;;5059150;28;20486;-92
2021/09/29 05:45:39;;;;;;;23.83;21.97;;;;;;;;;;5039075;28;20425;-92
2021/09/29 05:48:07;;;;;;;23.27;21.47;;;;;;;;;;5057356;28;20461;-92
2021/09/29 05:50:35;;;;;;;23.70;21.97;;;;;;;;;;5056760;28;20425;-89
2021/09/29 05:53:02;;;;;;;24.00;22.40;;;;;;;;;;5056785;28;20421;-92
2021/09/29 05:55:30;;;;;;;24.63;22.93;;;;;;;;;;5056735;28;20464;-91
2021/09/29 05:57:57;;;;;;;23.60;22.10;;;;;;;;;;5056723;28;20454;-89
2021/09/29 06:00:26;;;;;;;23.27;21.70;;;;;;;;;;5057093;28;20409;-89
2021/09/29 06:02:53;;;;;;;23.80;22.30;;;;;;;;;;5056442;28;20947;-91
2021/09/29 06:05:21;;;;;;;23.80;22.30;;;;;;;;;;5056717;28;20943;-90
2021/09/29 06:07:49;;;;;;;24.63;22.50;;;;;;;;;;5056366;28;20532;-91
2021/09/29 06:10:17;;;;;;;23.57;21.93;;;;;;;;;;5042901;28;20453;-89
2021/09/29 06:12:46;;;;;;;22.40;20.90;;;;;;;;;;5056342;28;20864;-88
2021/09/29 06:15:20;;;;;;;23.97;22.43;;;;;;;;;;5056282;28;20414;-89
2021/09/29 06:17:55;;;;;;;23.83;22.30;;;;;;;;;;5056654;28;20449;-89
2021/09/29 06:20:23;;;;;;;25.20;23.70;;;;;;;;;;5056647;28;20518;-91
2021/09/29 06:22:50;;;;;;;24.10;22.53;;;;;;;;;;5022405;28;20528;-91
2021/09/29 06:25:20;;;;;;;23.83;22.20;;;;;;;;;;5056089;28;20425;-90
2021/09/29 06:27:47;;;;;;;24.43;22.83;;;;;;;;;;5056100;28;20818;-90
2021/09/29 06:30:15;;;;;;;23.83;22.27;;;;;;;;;;5038580;28;20471;-90
2021/09/29 06:32:42;;;;;;;23.70;22.10;;;;;;;;;;5055627;28;20986;-90
2021/09/29 06:35:12;;;;;;;24.73;22.63;;;;;;;;;;5055995;28;20401;-90
2021/09/29 06:37:43;;;;;;;24.50;22.77;;;;;;;;;;5056189;28;20420;-91
2021/09/29 06:40:12;;;;;;;23.30;21.70;;;;;;;;;;5056355;28;20417;-90
2021/09/29 06:42:40;;;;;;;23.50;21.97;;;;;;;;;;5055805;28;20475;-90
2021/09/29 06:45:08;;;;;;;24.00;22.40;;;;;;;;;;5055937;28;20414;-91
2021/09/29 06:47:38;;;;;;;24.67;22.70;;;;;;;;;;5038634;28;20435;-91
2021/09/29 06:50:05;;;;;;;24.23;22.60;;;;;;;;;;5038345;28;20474;-91
2021/09/29 06:52:34;;;;;;;25.67;24.00;;;;;;;;;;5056445;28;20424;-91
2021/09/29 06:55:02;;;;;;;23.30;21.90;;;;;;;;;;5056088;28;20433;-91
2021/09/29 06:57:29;;;;;;;23.40;21.90;;;;;;;;;;5055522;28;20433;-90
2021/09/29 06:59:56;;;;;;;25.20;23.33;;;;;;;;;;5055837;28;20419;-89
2021/09/29 07:02:24;;;;;;;24.47;22.83;;;;;;;;;;5056804;28;20497;-89
2021/09/29 07:04:52;;;;;;;24.83;23.00;;;;;;;;;;5056786;28;20441;-89
2021/09/29 07:07:19;;;;;;;25.03;23.43;;;;;;;;;;5055931;28;20750;-89
2021/09/29 07:09:48;;;;;;;24.37;22.70;;;;;;;;;;5056249;28;20790;-89
2021/09/29 07:12:15;;;;;;;23.87;22.07;;;;;;;;;;5055861;28;20401;-88
2021/09/29 07:14:43;;;;;;;24.77;23.10;;;;;;;;;;5055405;28;21002;-90
2021/09/29 07:17:10;;;;;;;24.93;23.17;;;;;;;;;;5055557;28;20413;-90
2021/09/29 07:19:39;;;;;;;23.27;21.87;;;;;;;;;;5055023;28;20405;-88
2021/09/29 07:22:07;;;;;;;24.37;22.63;;;;;;;;;;5055522;28;20461;-90
2021/09/29 07:24:34;;;;;;;23.70;22.00;;;;;;;;;;5054750;28;20429;-90
2021/09/29 07:27:03;;;;;;;23.77;22.30;;;;;;;;;;5055635;28;20444;-91
2021/09/29 07:29:30;;;;;;;25.43;23.63;;;;;;;;;;5055299;28;20413;-91
2021/09/29 07:31:58;;;;;;;25.53;23.90;;;;;;;;;;5055034;28;20446;-91
2021/09/29 07:34:25;;;;;;;24.07;22.33;;;;;;;;;;5054871;28;20478;-89
2021/09/29 07:36:52;;;;;;;23.77;22.27;;;;;;;;;;5055200;28;20458;-90
2021/09/29 07:39:20;;;;;;;23.00;21.60;;;;;;;;;;5055195;28;20423;-90
2021/09/29 07:41:47;;;;;;;23.83;21.80;;;;;;;;;;5037643;28;20479;-85
2021/09/29 07:44:16;;;;;;;23.27;21.70;;;;;;;;;;5054628;28;20433;-89
2021/09/29 07:46:44;;;;;;;22.80;21.10;;;;;;;;;;5054883;28;20451;-90
2021/09/29 07:49:12;;;;;;;23.73;21.70;;;;;;;;;;5054357;28;20436;-89
2021/09/29 07:51:39;;;;;;;22.73;21.33;;;;;;;;;;5054941;28;20452;-89
2021/09/29 07:54:07;;;;;;;23.23;21.70;;;;;;;;;;5055217;28;20420;-89
2021/09/29 07:56:34;;;;;;;23.73;22.33;;;;;;;;;;5054602;28;20428;-89
2021/09/29 07:59:02;;;;;;;23.97;22.20;;;;;;;;;;5055484;28;20410;-89
2021/09/29 08:01:31;;;;;;;22.77;21.47;;;;;;;;;;5056833;28;20442;-93
2021/09/29 08:03:58;;;;;;;22.50;21.00;;;;;;;;;;5056266;28;20539;-89
2021/09/29 08:06:28;;;;;;;22.83;21.20;;;;;;;;;;5037964;28;20443;-89
2021/09/29 08:08:56;;;;;;;23.10;21.77;;;;;;;;;;5056412;28;20434;-88
2021/09/29 08:11:23;;;;;;;24.03;22.33;;;;;;;;;;5056640;28;20781;-89
2021/09/29 08:13:50;;;;;;;22.20;20.77;;;;;;;;;;5038429;28;20454;-88
2021/09/29 08:16:18;;;;;;;22.80;21.10;;;;;;;;;;5054868;28;20430;-88
2021/09/29 08:18:47;;;;;;;22.33;20.73;;;;;;;;;;5056972;28;20434;-88
2021/09/29 08:21:23;;;;;;;22.10;20.50;;;;;;;;;;5055716;28;20403;-89
2021/09/29 08:23:53;;;;;;;22.70;20.57;;;;;;;;;;5055418;28;20486;-89
2021/09/29 08:26:43;;;;;;;22.63;21.10;;;;;;;;;;5057435;28;20492;-89
2021/09/29 08:29:30;;;;;;;22.07;20.67;;;;;;;;;;5061655;28;20422;-89
2021/09/29 08:32:07;;;;;;;21.60;20.10;;;;;;;;;;5057309;28;20446;-89
2021/09/29 08:34:43;;;;;;;21.20;19.70;;;;;;;;;;5055492;28;20533;-89
2021/09/29 08:37:21;;;;;;;23.00;20.90;;;;;;;;;;5060056;28;20447;-89
2021/09/29 08:39:56;;;;;;;20.10;18.90;;;;;;;;;;5059399;28;20436;-89
2021/09/29 08:42:29;;;;;;;22.10;20.50;;;;;;;;;;5059731;28;20544;-89
2021/09/29 08:44:59;;;;;;;21.57;20.17;;;;;;;;;;5061964;28;20429;-88
2021/09/29 08:47:30;;;;;;;20.93;19.73;;;;;;;;;;5059223;28;20415;-89
2021/09/29 09:17:35;;;;;;;20.43;19.20;;;;;;;;;;5133099;28;20453;-87
2021/09/29 09:20:10;;;;;;;21.20;19.93;;;;;;;;;;5133577;28;20499;-87
2021/09/29 09:22:38;;;;;;;21.60;20.10;;;;;;;;;;5114804;28;20506;-88
2021/09/29 09:25:05;;;;;;;20.50;19.30;;;;;;;;;;5132862;28;20443;-87
2021/09/29 09:27:40;;;;;;;20.60;19.13;;;;;;;;;;5134041;28;20480;-88
2021/09/29 09:30:10;;;;;;;21.03;19.20;;;;;;;;;;5133564;28;20419;-88
2021/09/29 09:32:45;;;;;;;20.33;19.13;;;;;;;;;;5115059;28;20428;-88
2021/09/29 09:35:13;;;;;;;20.97;19.67;;;;;;;;;;5132134;28;20513;-88
2021/09/29 09:37:44;;;;;;;20.70;19.47;;;;;;;;;;5114201;28;20480;-88
2021/09/29 09:40:13;;;;;;;20.77;19.37;;;;;;;;;;5132060;28;20431;-88
2021/09/29 09:42:42;;;;;;;21.10;19.70;;;;;;;;;;5114194;28;20418;-88
2021/09/29 09:45:11;;;;;;;19.90;18.60;;;;;;;;;;5132686;28;20418;-88
2021/09/29 09:47:41;;;;;;;20.97;19.47;;;;;;;;;;5132932;28;20543;-87
2021/09/29 09:50:09;;;;;;;19.53;18.43;;;;;;;;;;5132188;28;20431;-89
2021/09/29 09:52:40;;;;;;;19.57;18.37;;;;;;;;;;5132754;28;20431;-88
2021/09/29 09:55:09;;;;;;;19.00;18.00;;;;;;;;;;5114316;28;20497;-87
2021/09/29 09:57:39;;;;;;;19.57;18.17;;;;;;;;;;5131680;28;20478;-88
2021/09/29 10:00:07;;;;;;;19.67;18.43;;;;;;;;;;5132178;28;20452;-89
2021/09/29 10:02:51;;;;;;;21.53;19.60;;;;;;;;;;5114030;28;20779;-85
2021/09/29 10:05:20;;;;;;;20.80;19.20;;;;;;;;;;5129287;28;20847;-84
2021/09/29 10:07:48;;;;;;;20.43;19.10;;;;;;;;;;5130708;28;20411;-91
2021/09/29 10:10:21;;;;;;;19.50;18.20;;;;;;;;;;5119176;28;20453;-91
2021/09/29 10:13:07;;;;;;;19.63;18.53;;;;;;;;;;5125014;28;20511;-92
2021/09/29 10:24:07;;;;;;;20.40;19.13;;;;;;;;;;5123164;28;20405;-91
2021/09/29 10:26:34;;;;;;;20.40;19.20;;;;;;;;;;5132920;28;20440;-91
2021/09/29 10:29:05;;;;;;;21.97;20.10;;;;;;;;;;5137749;28;20424;-90
2021/09/29 10:31:40;;;;;;;20.10;19.00;;;;;;;;;;5118367;28;20411;-91
2021/09/29 10:34:11;;;;;;;19.27;18.17;;;;;;;;;;5118443;28;20426;-91
2021/09/29 10:37:00;;;;;;;19.97;18.83;;;;;;;;;;5117641;28;20430;-91
2021/09/29 10:42:23;;;;;;;21.07;19.30;;;;;;;;;;5117398;28;20391;-85
2021/09/29 10:48:03;;;;;;;21.43;19.93;;;;;;;;;;5101931;27;1501229;-87
2021/09/29 11:29:27;;;;;;;19.77;18.60;;;;;;;;;;5133739;28;20523;-85
2021/09/29 11:31:57;;;;;;;20.13;18.93;;;;;;;;;;5133440;28;20443;-89
2021/09/29 11:34:26;;;;;;;20.53;19.33;;;;;;;;;;5134264;28;20448;-86
2021/09/29 11:37:22;;;;;;;20.57;19.17;;;;;;;;;;5135075;28;20422;-86
2021/09/29 12:10:58;;;;;;;19.70;18.60;;;;;;;;;;5043044;28;20490;-85
2021/09/29 12:13:38;;;;;;;41.90;26.87;;;;;;;;;;5042252;28;20449;-87
2021/09/29 12:16:06;;;;;;;38.23;35.33;;;;;;;;;;5049597;28;20762;-85
2021/09/29 12:18:34;;;;;;;30.33;27.77;;;;;;;;;;5048077;28;20402;-84
2021/09/29 12:21:01;;;;;;;27.00;25.30;;;;;;;;;;5048689;28;20435;-84
2021/09/29 12:23:29;;;;;;;27.00;25.20;;;;;;;;;;5052314;28;20948;-83
2021/09/29 12:26:34;;;;;;;26.10;24.60;;;;;;;;;;5054098;28;20487;-84
2021/09/29 12:29:13;;;;;;;26.97;25.17;;;;;;;;;;5050697;28;20417;-83
2021/09/29 12:34:44;;;;;;;27.53;25.63;;;;;;;;;;5053557;28;20433;-82
2021/09/29 12:37:13;;;;;;;28.30;26.20;;;;;;;;;;5058914;28;20405;-83
2021/09/29 12:39:42;;;;;;;28.07;25.77;;;;;;;;;;5057047;28;20439;-83
2021/09/29 12:42:13;;;;;;;26.70;24.80;;;;;;;;;;5087909;28;20445;-82
2021/09/29 12:44:53;;;;;;;24.20;22.70;;;;;;;;;;5098824;28;20445;-82
2021/09/29 12:47:35;;;;;;;29.10;27.10;;;;;;;;;;5098888;28;20536;-83
2021/09/29 12:50:11;;;;;;;28.60;26.50;;;;;;;;;;5100402;28;20916;-84
2021/09/29 12:52:46;;;;;;;27.90;25.57;;;;;;;;;;5101944;28;20415;-84
2021/09/29 12:55:19;;;;;;;26.90;25.10;;;;;;;;;;5100960;28;20491;-83
2021/09/29 12:57:49;;;;;;;26.63;24.93;;;;;;;;;;5109621;28;20406;-85
2021/09/29 13:00:17;;;;;;;26.47;24.67;;;;;;;;;;5104165;28;20412;-86
2021/09/29 13:02:46;;;;;;;26.83;24.83;;;;;;;;;;5109203;28;20407;-85
2021/09/29 13:05:13;;;;;;;28.10;26.40;;;;;;;;;;5104996;28;20432;-84
2021/09/29 13:07:41;;;;;;;27.23;25.33;;;;;;;;;;5089234;28;20884;-85
2021/09/29 13:10:09;;;;;;;26.33;24.53;;;;;;;;;;5104950;28;20396;-85
2021/09/29 13:12:36;;;;;;;27.30;25.40;;;;;;;;;;5095478;28;20433;-85
2021/09/29 13:15:05;;;;;;;29.53;27.40;;;;;;;;;;5095565;28;20441;-85
2021/09/29 13:17:32;;;;;;;28.00;26.00;;;;;;;;;;5096036;28;20817;-85
2021/09/29 13:20:01;;;;;;;23.27;21.87;;;;;;;;;;5095247;28;20488;-85
2021/09/29 13:22:29;;;;;;;27.40;25.47;;;;;;;;;;5095213;28;20832;-85
2021/09/29 13:25:32;;;;;;;23.63;21.93;;;;;;;;;;5095526;28;20420;-86
2021/09/29 13:36:36;;;;;;;29.53;27.33;;;;;;;;;;5095040;28;20395;-86
2021/09/29 13:39:03;;;;;;;23.60;22.00;;;;;;;;;;5094911;28;20427;-85
2021/09/29 13:41:31;;;;;;;26.13;24.53;;;;;;;;;;5095109;28;20412;-85
2021/09/29 13:43:58;;;;;;;26.00;24.43;;;;;;;;;;5094110;28;20437;-83
2021/09/29 13:46:27;;;;;;;26.30;24.63;;;;;;;;;;5073158;28;20464;-84
2021/09/29 13:48:56;;;;;;;24.83;23.37;;;;;;;;;;5074492;28;20441;-85
2021/09/29 13:51:25;;;;;;;25.40;23.90;;;;;;;;;;5075786;28;20515;-88
2021/09/29 13:53:53;;;;;;;25.00;23.50;;;;;;;;;;5075198;28;20815;-91
2021/09/29 13:56:23;;;;;;;26.70;24.97;;;;;;;;;;5074823;28;20774;-90
2021/09/29 13:58:58;;;;;;;25.60;24.00;;;;;;;;;;5074839;28;20450;-88
2021/09/29 14:28:33;;;;;;;23.77;22.37;;;;;;;;;;5078191;28;20503;-89
2021/09/29 14:29:22;;;;;;;21.03;19.83;;;;;;;;;;5084552;28;20748;-85
2021/09/29 14:32:02;;;;;;;19.27;18.17;;;;;;;;;;5073775;28;20456;-83
2021/09/29 14:34:31;;;;;;;17.50;16.50;;;;;;;;;;5073555;28;20428;-85
2021/09/29 14:36:58;;;;;;;15.33;14.63;;;;;;;;;;5073939;28;20405;-85
2021/09/29 14:39:26;;;;;;;15.70;14.90;;;;;;;;;;5074544;28;20436;-85
2021/09/29 14:41:54;;;;;;;14.57;13.97;;;;;;;;;;5074478;28;20441;-84
2021/09/29 14:44:22;;;;;;;13.90;13.30;;;;;;;;;;5073885;28;20449;-85
2021/09/29 14:46:49;;;;;;;14.73;14.13;;;;;;;;;;5083691;28;20484;-83
2021/09/29 14:49:16;;;;;;;13.70;13.10;;;;;;;;;;5093760;28;20407;-84
2021/09/29 14:51:45;;;;;;;14.13;13.53;;;;;;;;;;5094050;28;20788;-85
2021/09/29 14:54:12;;;;;;;13.80;13.20;;;;;;;;;;5094069;28;20419;-89
2021/09/29 14:56:40;;;;;;;14.37;13.77;;;;;;;;;;5093922;28;20861;-91
2021/09/29 14:59:07;;;;;;;14.37;13.77;;;;;;;;;;5094472;28;20792;-88
2021/09/29 15:01:35;;;;;;;14.43;13.83;;;;;;;;;;5094319;28;20768;-89
2021/09/29 15:04:03;;;;;;;15.60;14.90;;;;;;;;;;5094334;28;20447;-89
2021/09/29 15:06:30;;;;;;;13.83;13.23;;;;;;;;;;5094160;28;20931;-88
2021/09/29 15:08:59;;;;;;;13.63;13.03;;;;;;;;;;5094363;28;20432;-90
2021/09/29 15:11:26;;;;;;;14.47;13.87;;;;;;;;;;5094025;28;20515;-89
2021/09/29 15:13:56;;;;;;;15.03;14.37;;;;;;;;;;5093767;28;20437;-90
2021/09/29 15:16:28;;;;;;;15.00;14.07;;;;;;;;;;5095284;28;20452;-88
2021/09/29 15:19:05;;;;;;;14.70;13.90;;;;;;;;;;5094597;28;20446;-86
2021/09/29 15:24:28;;;;;;;14.60;13.80;;;;;;;;;;5090574;28;20900;-91
2021/09/29 15:27:23;;;;;;;15.50;14.70;;;;;;;;;;5093718;28;20517;-86
2021/09/29 15:49:09;;;;;;;14.07;13.37;;;;;;;;;;5051233;28;20448;-87
2021/09/29 15:51:44;;;;;;;14.53;13.73;;;;;;;;;;5096766;28;20487;-85
2021/09/29 15:54:19;;;;;;;16.00;15.10;;;;;;;;;;5096784;28;20422;-83
2021/09/29 15:59:47;;;;;;;14.80;14.20;;;;;;;;;;5095262;28;20802;-85
2021/09/29 16:02:17;;;;;;;15.97;14.97;;;;;;;;;;5096795;28;20464;-85
2021/09/29 16:04:52;;;;;;;15.30;14.40;;;;;;;;;;5096704;28;20781;-84
2021/09/29 16:07:31;;;;;;;15.97;15.17;;;;;;;;;;5096869;28;20821;-86
2021/09/29 16:32:10;;;;;;;16.60;15.70;;;;;;;;;;5096574;28;20410;-88
2021/09/29 16:34:46;;;;;;;17.20;16.10;;;;;;;;;;5096692;28;20411;-92
2021/09/29 16:37:13;;;;;;;18.27;17.27;;;;;;;;;;5096408;28;20455;-85
2021/09/29 16:39:42;;;;;;;17.27;16.40;;;;;;;;;;5096538;28;20433;-87
2021/09/29 16:42:10;;;;;;;18.27;17.27;;;;;;;;;;5096518;28;20416;-86
2021/09/29 16:44:41;;;;;;;18.60;17.43;;;;;;;;;;5096309;28;20433;-86
2021/09/29 16:47:09;;;;;;;17.97;16.97;;;;;;;;;;5008668;28;20562;-87
2021/09/29 16:49:38;;;;;;;17.37;16.50;;;;;;;;;;5056839;28;20451;-88
2021/09/29 16:52:09;;;;;;;18.13;17.13;;;;;;;;;;5101706;28;20430;-87
2021/09/29 16:54:37;;;;;;;17.37;16.43;;;;;;;;;;5040905;28;21217;-88
2021/09/29 16:57:11;;;;;;;17.80;16.80;;;;;;;;;;5101566;28;20428;-88
2021/09/29 16:59:50;;;;;;;17.90;16.83;;;;;;;;;;5100087;28;20532;-88
2021/09/29 17:02:17;;;;;;;17.27;16.47;;;;;;;;;;5100955;28;20474;-88
2021/09/29 17:04:46;;;;;;;20.27;18.10;;;;;;;;;;5102134;28;20431;-86
2021/09/29 17:07:14;;;;;;;15.90;14.67;;;;;;;;;;5099120;28;20484;-85
2021/09/29 17:09:41;;;;;;;15.90;15.00;;;;;;;;;;5100935;28;20455;-88
2021/09/29 17:12:09;;;;;;;15.90;14.90;;;;;;;;;;5101316;28;20443;-90
2021/09/29 17:14:36;;;;;;;24.70;17.70;;;;;;;;;;5101977;28;20536;-87
2021/09/29 17:17:06;;;;;;;15.70;14.73;;;;;;;;;;5101265;28;20470;-93
2021/09/29 17:19:34;;;;;;;14.80;14.07;;;;;;;;;;5100001;28;20462;-87
2021/09/29 17:22:03;;;;;;;15.07;14.10;;;;;;;;;;5103589;28;20426;-87
2021/09/29 17:24:31;;;;;;;15.20;14.40;;;;;;;;;;5104037;28;20422;-88
2021/09/29 17:27:00;;;;;;;13.67;12.87;;;;;;;;;;5099111;28;20451;-89
2021/09/29 17:29:27;;;;;;;13.93;13.20;;;;;;;;;;5100910;28;20509;-88
2021/09/29 17:31:59;;;;;;;13.67;12.80;;;;;;;;;;5099075;28;20430;-86
2021/09/29 17:34:41;;;;;;;14.20;13.50;;;;;;;;;;5099107;28;20430;-89
2021/09/29 17:53:55;;;;;;;15.50;14.60;;;;;;;;;;4961010;28;20475;-86
2021/09/29 17:56:23;;;;;;;15.80;14.80;;;;;;;;;;4959019;28;20429;-92
2021/09/29 17:58:51;;;;;;;16.40;15.50;;;;;;;;;;4959367;28;20468;-92
2021/09/29 18:01:22;;;;;;;16.50;15.37;;;;;;;;;;4961178;28;20881;-91
2021/09/29 18:03:56;;;;;;;17.23;16.13;;;;;;;;;;4960696;28;20444;-91
2021/09/29 18:06:30;;;;;;;15.53;14.73;;;;;;;;;;4962928;28;20472;-90